Time;durP1;ratioP1;P1;durP2;ratioP2;P2;SDS_P1;SDS_P2;PMS_P1;PMS_P2;Temp;Humidity;BMP_temperature;BMP_pressure;BME280_temperature;BME280_humidity;BME280_pressure;Samples;Min_cycle;Max_cycle;Signal;HPM_P1;HPM_P2
2022/01/26 00:06:45;;;;;;;9.97;5.60;;;;;;;;;;4982156;28;20336;-61
2022/01/26 00:09:13;;;;;;;20.53;7.90;;;;;;;;;;4987999;28;20241;-61
2022/01/26 00:11:40;;;;;;;24.23;9.93;;;;;;;;;;4988305;28;20288;-60
2022/01/26 00:14:11;;;;;;;46.07;14.43;;;;;;;;;;4987506;28;20214;-61
2022/01/26 00:16:40;;;;;;;20.97;7.37;;;;;;;;;;4987310;28;20671;-60
2022/01/26 00:19:10;;;;;;;17.57;6.50;;;;;;;;;;4987590;28;20197;-61
2022/01/26 00:21:42;;;;;;;8.50;4.53;;;;;;;;;;4989716;28;20209;-60
2022/01/26 00:27:06;;;;;;;18.10;3.57;;;;;;;;;;4985754;28;20233;-61
2022/01/26 00:29:37;;;;;;;11.57;4.87;;;;;;;;;;4974444;28;20287;-61
2022/01/26 00:40:27;;;;;;;10.23;4.17;;;;;;;;;;4987739;28;20216;-61
2022/01/26 00:42:58;;;;;;;10.33;4.37;;;;;;;;;;4986979;28;20214;-61
2022/01/26 00:45:33;;;;;;;11.07;3.70;;;;;;;;;;4987431;28;20240;-60
2022/01/26 00:48:03;;;;;;;11.73;4.60;;;;;;;;;;4986156;28;20715;-61
2022/01/26 00:50:31;;;;;;;9.87;4.37;;;;;;;;;;4993483;28;20228;-60
2022/01/26 00:52:58;;;;;;;11.20;5.00;;;;;;;;;;4991890;28;20829;-60
2022/01/26 00:55:25;;;;;;;11.30;4.43;;;;;;;;;;4995820;28;20201;-60
2022/01/26 00:57:52;;;;;;;8.33;4.43;;;;;;;;;;4992181;28;20263;-60
2022/01/26 01:00:21;;;;;;;8.60;4.40;;;;;;;;;;4992273;28;20205;-60
2022/01/26 01:02:48;;;;;;;8.40;3.70;;;;;;;;;;4993848;28;20207;-60
2022/01/26 01:05:18;;;;;;;10.57;3.97;;;;;;;;;;4994197;28;20237;-60
2022/01/26 01:07:48;;;;;;;8.90;3.57;;;;;;;;;;4993858;28;20212;-60
2022/01/26 01:10:19;;;;;;;9.60;4.20;;;;;;;;;;4978839;28;20240;-60
2022/01/26 01:12:48;;;;;;;7.57;3.67;;;;;;;;;;4991991;28;20583;-61
2022/01/26 01:15:16;;;;;;;13.50;4.10;;;;;;;;;;4993821;28;20242;-60
2022/01/26 01:17:47;;;;;;;7.37;4.20;;;;;;;;;;4994012;28;20220;-61
2022/01/26 01:20:29;;;;;;;8.10;4.30;;;;;;;;;;4993602;28;20201;-59
2022/01/26 01:23:15;;;;;;;7.30;3.53;;;;;;;;;;4995214;28;20197;-62
2022/01/26 01:26:20;;;;;;;8.00;3.87;;;;;;;;;;4992168;28;20236;-60
2022/01/26 01:29:07;;;;;;;6.70;3.27;;;;;;;;;;4984395;28;20197;-60
2022/01/26 01:31:43;;;;;;;5.73;3.83;;;;;;;;;;4991927;28;20296;-60
2022/01/26 01:34:11;;;;;;;7.13;3.13;;;;;;;;;;4993788;28;20314;-60
2022/01/26 01:36:40;;;;;;;9.47;3.67;;;;;;;;;;4993577;28;20204;-61
2022/01/26 01:39:08;;;;;;;5.93;3.30;;;;;;;;;;4992102;28;20293;-59
2022/01/26 01:41:36;;;;;;;7.93;3.17;;;;;;;;;;4991890;28;20683;-62
2022/01/26 01:44:04;;;;;;;5.50;3.03;;;;;;;;;;4993523;28;20216;-60
2022/01/26 01:46:31;;;;;;;6.57;3.33;;;;;;;;;;4993344;28;20225;-59
2022/01/26 01:48:58;;;;;;;6.70;3.63;;;;;;;;;;4993716;28;20220;-59
2022/01/26 01:51:30;;;;;;;5.47;2.97;;;;;;;;;;4990134;28;20279;-61
2022/01/26 01:53:57;;;;;;;9.47;3.23;;;;;;;;;;4993574;28;20209;-60
2022/01/26 01:56:26;;;;;;;7.03;3.07;;;;;;;;;;4993523;28;20918;-60
2022/01/26 01:58:53;;;;;;;7.27;3.50;;;;;;;;;;4992998;28;20279;-60
2022/01/26 02:01:21;;;;;;;3.77;3.03;;;;;;;;;;4975116;28;20232;-59
2022/01/26 02:03:48;;;;;;;9.57;2.87;;;;;;;;;;4987977;28;20216;-61
2022/01/26 02:06:15;;;;;;;10.27;2.87;;;;;;;;;;4989268;28;20318;-60
2022/01/26 02:08:42;;;;;;;6.53;3.33;;;;;;;;;;4989256;28;20280;-60
2022/01/26 02:11:11;;;;;;;4.63;2.53;;;;;;;;;;4986915;28;20922;-61
2022/01/26 02:13:47;;;;;;;11.13;3.40;;;;;;;;;;4989504;28;20210;-61
2022/01/26 02:16:21;;;;;;;5.87;3.27;;;;;;;;;;4972763;28;20687;-59
2022/01/26 02:19:11;;;;;;;3.57;2.27;;;;;;;;;;4989229;28;20206;-59
2022/01/26 02:52:10;;;;;;;6.17;2.20;;;;;;;;;;4940982;28;20267;-60
2022/01/26 02:54:49;;;;;;;4.53;2.33;;;;;;;;;;4987524;28;20206;-60
2022/01/26 03:00:15;;;;;;;10.30;3.33;;;;;;;;;;4985086;28;20215;-60
2022/01/26 03:02:47;;;;;;;10.00;3.20;;;;;;;;;;4985855;28;20238;-60
2022/01/26 03:05:16;;;;;;;2.87;2.07;;;;;;;;;;4987667;28;20213;-60
2022/01/26 03:07:48;;;;;;;5.83;2.07;;;;;;;;;;4988713;28;20220;-61
2022/01/26 03:10:22;;;;;;;3.77;2.30;;;;;;;;;;4989330;28;20213;-60
2022/01/26 03:12:55;;;;;;;3.37;2.27;;;;;;;;;;4986833;28;20236;-59
2022/01/26 03:15:26;;;;;;;6.47;3.57;;;;;;;;;;4987280;28;20233;-59
2022/01/26 03:18:18;;;;;;;5.13;2.40;;;;;;;;;;4985593;28;20206;-59
2022/01/26 03:20:47;;;;;;;5.50;2.53;;;;;;;;;;4990234;28;20214;-61
2022/01/26 03:28:57;;;;;;;3.47;2.13;;;;;;;;;;4980061;28;20212;-60
2022/01/26 03:32:01;;;;;;;3.93;2.37;;;;;;;;;;4988408;28;20206;-60
2022/01/26 03:34:26;;;;;;;3.90;2.90;;;;;;;;;;4986594;28;20254;-60
2022/01/26 03:36:56;;;;;;;2.53;1.73;;;;;;;;;;4972839;28;20205;-60
2022/01/26 03:39:25;;;;;;;6.30;2.97;;;;;;;;;;4988643;28;20212;-60
2022/01/26 03:42:02;;;;;;;6.77;3.17;;;;;;;;;;4990471;28;20255;-60
2022/01/26 03:44:29;;;;;;;3.77;2.43;;;;;;;;;;4988470;28;20247;-60
2022/01/26 03:46:56;;;;;;;4.07;2.80;;;;;;;;;;4987070;28;20947;-61
2022/01/26 03:49:23;;;;;;;4.17;2.30;;;;;;;;;;4988019;28;20259;-60
2022/01/26 03:51:51;;;;;;;3.93;2.73;;;;;;;;;;4986665;28;20225;-61
2022/01/26 03:54:19;;;;;;;4.40;2.27;;;;;;;;;;4988533;28;20239;-61
2022/01/26 03:56:46;;;;;;;6.33;2.23;;;;;;;;;;4990006;28;20197;-60
2022/01/26 03:59:15;;;;;;;5.13;2.07;;;;;;;;;;4988028;28;20220;-59
2022/01/26 04:01:42;;;;;;;4.27;2.57;;;;;;;;;;4984350;28;20235;-60
2022/01/26 04:04:09;;;;;;;7.87;3.33;;;;;;;;;;4985938;28;20270;-60
2022/01/26 04:06:36;;;;;;;4.70;2.40;;;;;;;;;;4981867;28;20653;-60
2022/01/26 04:09:04;;;;;;;3.67;1.93;;;;;;;;;;4987751;28;20209;-60
2022/01/26 04:11:36;;;;;;;4.63;2.17;;;;;;;;;;4988151;28;20268;-60
2022/01/26 04:14:05;;;;;;;4.07;2.33;;;;;;;;;;4988150;28;20213;-60
2022/01/26 04:16:34;;;;;;;4.63;2.53;;;;;;;;;;4987739;28;20204;-60
2022/01/26 04:19:01;;;;;;;3.70;2.07;;;;;;;;;;4984047;28;21162;-59
2022/01/26 04:21:39;;;;;;;4.93;2.33;;;;;;;;;;4987702;28;20215;-61
2022/01/26 04:24:13;;;;;;;5.23;2.20;;;;;;;;;;4987694;28;20213;-61
2022/01/26 04:26:45;;;;;;;3.40;2.40;;;;;;;;;;4972212;28;20335;-61
2022/01/26 04:29:17;;;;;;;4.53;2.20;;;;;;;;;;4987432;28;20205;-61
2022/01/26 04:31:46;;;;;;;1.77;1.40;;;;;;;;;;4987581;28;20209;-61
2022/01/26 04:34:13;;;;;;;7.17;2.10;;;;;;;;;;4987328;28;20255;-61
2022/01/26 04:36:45;;;;;;;2.50;2.10;;;;;;;;;;4986440;28;20216;-61
2022/01/26 04:39:17;;;;;;;5.93;2.73;;;;;;;;;;4986988;28;20666;-59
2022/01/26 04:41:49;;;;;;;4.43;2.47;;;;;;;;;;4987776;28;20228;-59
2022/01/26 04:44:21;;;;;;;3.33;2.37;;;;;;;;;;4987783;28;20220;-59
2022/01/26 04:46:50;;;;;;;3.10;2.47;;;;;;;;;;4981729;28;20233;-59
2022/01/26 04:49:17;;;;;;;4.03;3.00;;;;;;;;;;4985242;28;20206;-59
2022/01/26 04:51:44;;;;;;;1.97;1.70;;;;;;;;;;4987738;28;20225;-59
2022/01/26 04:54:11;;;;;;;2.63;1.47;;;;;;;;;;4987492;28;20348;-60
2022/01/26 04:56:38;;;;;;;4.17;2.23;;;;;;;;;;4987568;28;20256;-60
2022/01/26 04:59:06;;;;;;;5.27;1.90;;;;;;;;;;4987379;28;20262;-60
2022/01/26 05:01:33;;;;;;;3.17;2.60;;;;;;;;;;4986392;28;20208;-60
2022/01/26 05:04:01;;;;;;;4.07;2.40;;;;;;;;;;4984773;28;20266;-60
2022/01/26 05:06:28;;;;;;;2.37;1.77;;;;;;;;;;4987677;28;20228;-60
2022/01/26 05:08:55;;;;;;;1.93;1.77;;;;;;;;;;4987186;28;20275;-61
2022/01/26 05:11:30;;;;;;;2.20;2.10;;;;;;;;;;4989614;28;20629;-60
2022/01/26 05:13:58;;;;;;;9.07;2.83;;;;;;;;;;4987579;28;20240;-61
2022/01/26 05:16:25;;;;;;;2.83;1.80;;;;;;;;;;4982536;28;20671;-60
2022/01/26 05:18:53;;;;;;;4.50;2.47;;;;;;;;;;4987666;28;20209;-60
2022/01/26 05:21:22;;;;;;;5.60;2.37;;;;;;;;;;4989134;28;20710;-60
2022/01/26 05:23:49;;;;;;;3.67;2.40;;;;;;;;;;4987445;28;20695;-60
2022/01/26 05:26:16;;;;;;;2.30;1.93;;;;;;;;;;4989376;28;20717;-60
2022/01/26 05:28:43;;;;;;;1.80;1.53;;;;;;;;;;4985534;28;20237;-60
2022/01/26 05:31:10;;;;;;;3.33;2.43;;;;;;;;;;4989386;28;20217;-60
2022/01/26 05:33:37;;;;;;;1.93;1.60;;;;;;;;;;4987019;28;20215;-60
2022/01/26 05:36:05;;;;;;;4.90;2.60;;;;;;;;;;4990388;28;20225;-60
2022/01/26 05:38:33;;;;;;;2.83;1.57;;;;;;;;;;4991479;28;20220;-60
2022/01/26 05:41:01;;;;;;;3.47;2.03;;;;;;;;;;4992576;28;20275;-60
2022/01/26 05:43:29;;;;;;;3.27;2.40;;;;;;;;;;4990701;28;20236;-59
2022/01/26 05:46:00;;;;;;;1.87;1.77;;;;;;;;;;4992820;28;20312;-59
2022/01/26 05:48:27;;;;;;;5.20;2.20;;;;;;;;;;4990984;28;20235;-60
2022/01/26 05:51:03;;;;;;;6.47;2.07;;;;;;;;;;4992159;28;20221;-61
2022/01/26 05:53:31;;;;;;;3.67;2.13;;;;;;;;;;4984078;28;20240;-61
2022/01/26 05:55:59;;;;;;;1.93;1.70;;;;;;;;;;4973353;28;20308;-61
2022/01/26 05:58:27;;;;;;;5.37;2.60;;;;;;;;;;4971641;28;20206;-61
2022/01/26 06:00:54;;;;;;;4.07;2.13;;;;;;;;;;4978695;28;20216;-60
2022/01/26 06:03:21;;;;;;;5.87;2.73;;;;;;;;;;4989943;28;20205;-61
2022/01/26 06:05:48;;;;;;;3.90;3.00;;;;;;;;;;4990253;28;20809;-60
2022/01/26 06:08:15;;;;;;;2.70;1.87;;;;;;;;;;4991801;28;20302;-61
2022/01/26 06:10:42;;;;;;;3.23;2.07;;;;;;;;;;4989066;28;20607;-59
2022/01/26 06:13:11;;;;;;;3.07;2.70;;;;;;;;;;4991370;28;20218;-59
2022/01/26 06:15:38;;;;;;;8.97;2.33;;;;;;;;;;4979581;28;20213;-59
2022/01/26 06:18:05;;;;;;;4.93;2.47;;;;;;;;;;4991232;28;20198;-59
2022/01/26 06:20:32;;;;;;;8.43;2.40;;;;;;;;;;4989761;28;20212;-60
2022/01/26 06:23:00;;;;;;;2.80;2.40;;;;;;;;;;4990877;28;20214;-60
2022/01/26 06:25:27;;;;;;;6.87;2.03;;;;;;;;;;4972944;28;20268;-60
2022/01/26 06:27:57;;;;;;;8.50;2.47;;;;;;;;;;4991098;28;20635;-60
2022/01/26 06:30:26;;;;;;;3.57;1.73;;;;;;;;;;4987536;28;20329;-66
2022/01/26 06:32:53;;;;;;;7.00;2.67;;;;;;;;;;4990264;28;20233;-59
2022/01/26 06:35:21;;;;;;;3.43;2.80;;;;;;;;;;4989331;28;20256;-58
2022/01/26 06:37:49;;;;;;;4.17;2.70;;;;;;;;;;4984861;28;20207;-59
2022/01/26 06:40:16;;;;;;;7.50;3.03;;;;;;;;;;4975882;28;20276;-59
2022/01/26 06:42:52;;;;;;;5.13;2.30;;;;;;;;;;4976589;28;20205;-59
2022/01/26 06:45:22;;;;;;;5.33;2.07;;;;;;;;;;4991017;28;20831;-58
2022/01/26 06:47:59;;;;;;;6.67;2.13;;;;;;;;;;4990270;28;20225;-59
2022/01/26 06:50:26;;;;;;;5.20;2.73;;;;;;;;;;4976453;28;20304;-59
2022/01/26 06:53:02;;;;;;;2.77;2.40;;;;;;;;;;4990431;28;20209;-59
2022/01/26 06:55:29;;;;;;;3.93;2.30;;;;;;;;;;4989018;28;20872;-59
2022/01/26 06:57:56;;;;;;;4.00;2.00;;;;;;;;;;4990567;28;20226;-59
2022/01/26 07:00:23;;;;;;;5.17;2.93;;;;;;;;;;4990610;28;20244;-58
2022/01/26 07:02:54;;;;;;;5.37;2.50;;;;;;;;;;4990697;28;20221;-59
2022/01/26 07:05:22;;;;;;;4.10;3.03;;;;;;;;;;4990721;28;20221;-59
2022/01/26 07:07:49;;;;;;;8.13;2.87;;;;;;;;;;4990594;28;20284;-59
2022/01/26 07:10:16;;;;;;;7.83;3.33;;;;;;;;;;4989938;28;20213;-59
2022/01/26 07:12:43;;;;;;;3.33;2.00;;;;;;;;;;4990356;28;20218;-59
2022/01/26 07:23:34;;;;;;;2.57;2.37;;;;;;;;;;4990341;28;20621;-59
2022/01/26 07:26:01;;;;;;;4.73;2.10;;;;;;;;;;4990007;28;20213;-59
2022/01/26 07:28:34;;;;;;;5.13;2.97;;;;;;;;;;4979271;28;20240;-59
2022/01/26 07:31:01;;;;;;;3.47;2.13;;;;;;;;;;4970711;28;20264;-59
2022/01/26 07:33:30;;;;;;;5.27;2.57;;;;;;;;;;4970747;28;20906;-58
2022/01/26 07:35:57;;;;;;;6.47;2.50;;;;;;;;;;4970447;28;20213;-59
2022/01/26 07:38:25;;;;;;;3.80;2.53;;;;;;;;;;4970513;28;20210;-58
2022/01/26 07:40:52;;;;;;;5.27;2.13;;;;;;;;;;4975545;28;20205;-59
2022/01/26 07:43:19;;;;;;;6.13;3.17;;;;;;;;;;4971639;28;20217;-59
2022/01/26 07:45:46;;;;;;;2.80;2.13;;;;;;;;;;4989887;28;20224;-59
2022/01/26 07:48:13;;;;;;;2.70;2.50;;;;;;;;;;4972980;28;20739;-59
2022/01/26 07:50:42;;;;;;;3.73;2.40;;;;;;;;;;4970935;28;20244;-60
2022/01/26 07:53:14;;;;;;;3.20;2.77;;;;;;;;;;4971099;28;20257;-60
2022/01/26 07:55:41;;;;;;;5.37;3.00;;;;;;;;;;4970993;28;20252;-59
2022/01/26 07:58:09;;;;;;;3.67;2.53;;;;;;;;;;4970496;28;20214;-60
2022/01/26 08:00:36;;;;;;;2.87;2.20;;;;;;;;;;4979319;28;20215;-59
2022/01/26 08:03:04;;;;;;;4.27;2.77;;;;;;;;;;4990327;28;20216;-59
2022/01/26 08:05:31;;;;;;;4.97;2.50;;;;;;;;;;4981805;28;20214;-61
2022/01/26 08:07:59;;;;;;;4.50;2.30;;;;;;;;;;4970578;28;20245;-60
2022/01/26 08:10:26;;;;;;;2.63;2.40;;;;;;;;;;4970693;28;20305;-60
2022/01/26 08:12:53;;;;;;;3.03;2.13;;;;;;;;;;4970686;28;20720;-60
2022/01/26 08:15:20;;;;;;;2.03;1.80;;;;;;;;;;4987885;28;20212;-60
2022/01/26 08:17:48;;;;;;;4.00;2.20;;;;;;;;;;4990057;28;20220;-60
2022/01/26 08:20:15;;;;;;;6.40;2.00;;;;;;;;;;4989992;28;20236;-60
2022/01/26 08:22:42;;;;;;;4.57;2.47;;;;;;;;;;4989959;28;20213;-60
2022/01/26 08:25:11;;;;;;;4.93;2.23;;;;;;;;;;4989901;28;20316;-60
2022/01/26 08:27:42;;;;;;;4.70;1.97;;;;;;;;;;4989765;28;20236;-60
2022/01/26 08:30:14;;;;;;;9.23;2.20;;;;;;;;;;4979882;28;20716;-60
2022/01/26 08:32:41;;;;;;;2.07;1.90;;;;;;;;;;4987625;28;20213;-60
2022/01/26 08:35:08;;;;;;;2.63;2.07;;;;;;;;;;4985303;28;20245;-59
2022/01/26 08:37:36;;;;;;;3.63;2.17;;;;;;;;;;4970477;28;20209;-63
2022/01/26 08:40:03;;;;;;;3.13;2.03;;;;;;;;;;4976783;28;20206;-60
2022/01/26 08:42:32;;;;;;;2.63;1.67;;;;;;;;;;4970276;28;20298;-61
2022/01/26 08:44:59;;;;;;;3.30;2.10;;;;;;;;;;4984528;28;20686;-59
2022/01/26 08:47:26;;;;;;;4.43;2.20;;;;;;;;;;4983740;28;20241;-59
2022/01/26 08:49:53;;;;;;;1.93;1.80;;;;;;;;;;4969781;28;20238;-60
2022/01/26 08:52:20;;;;;;;3.30;1.93;;;;;;;;;;4970317;28;20273;-60
2022/01/26 08:54:47;;;;;;;2.37;1.73;;;;;;;;;;4970079;28;20229;-60
2022/01/26 08:57:14;;;;;;;3.33;2.57;;;;;;;;;;4970113;28;20692;-60
2022/01/26 08:59:42;;;;;;;2.40;1.87;;;;;;;;;;4971906;28;20217;-60
2022/01/26 09:02:09;;;;;;;3.63;2.07;;;;;;;;;;4988958;28;20227;-60
2022/01/26 09:04:36;;;;;;;2.77;2.57;;;;;;;;;;4989493;28;20621;-60
2022/01/26 09:07:04;;;;;;;2.70;2.13;;;;;;;;;;4989462;28;20216;-59
2022/01/26 09:09:41;;;;;;;5.00;1.97;;;;;;;;;;4988894;28;20320;-60
2022/01/26 09:12:09;;;;;;;1.47;1.37;;;;;;;;;;4993368;28;20223;-60
2022/01/26 09:14:36;;;;;;;2.20;1.90;;;;;;;;;;4988296;28;20296;-60
2022/01/26 09:17:06;;;;;;;1.73;1.63;;;;;;;;;;4988752;28;20205;-60
2022/01/26 09:19:33;;;;;;;2.03;1.83;;;;;;;;;;4977620;28;20299;-59
2022/01/26 09:22:02;;;;;;;1.97;1.77;;;;;;;;;;4973834;28;20684;-59
2022/01/26 09:24:30;;;;;;;2.47;2.27;;;;;;;;;;4983106;28;20212;-60
2022/01/26 09:26:57;;;;;;;2.80;1.87;;;;;;;;;;4993082;28;20216;-60
2022/01/26 09:29:25;;;;;;;2.00;1.80;;;;;;;;;;4993029;28;20236;-60
2022/01/26 09:31:52;;;;;;;1.97;1.70;;;;;;;;;;4977573;28;20217;-59
2022/01/26 09:34:22;;;;;;;3.23;1.83;;;;;;;;;;4973194;28;20249;-60
2022/01/26 09:36:49;;;;;;;7.00;2.80;;;;;;;;;;4987320;28;20209;-59
2022/01/26 09:39:30;;;;;;;4.67;2.63;;;;;;;;;;4993103;28;20263;-60
2022/01/26 09:41:58;;;;;;;2.77;2.07;;;;;;;;;;4991019;28;20252;-60
2022/01/26 09:44:25;;;;;;;2.37;2.13;;;;;;;;;;4992376;28;20216;-59
2022/01/26 09:46:52;;;;;;;4.03;2.90;;;;;;;;;;4992138;28;20209;-60
2022/01/26 09:49:21;;;;;;;6.57;2.30;;;;;;;;;;4992366;28;20295;-60
2022/01/26 09:51:50;;;;;;;2.93;2.63;;;;;;;;;;4992273;28;20286;-59
2022/01/26 09:54:18;;;;;;;5.17;2.37;;;;;;;;;;4992356;28;20205;-59
2022/01/26 09:56:47;;;;;;;6.00;2.87;;;;;;;;;;4992245;28;20220;-59
2022/01/26 09:59:14;;;;;;;1.87;1.77;;;;;;;;;;4992425;28;20232;-60
2022/01/26 10:01:42;;;;;;;3.03;2.00;;;;;;;;;;4991875;28;20220;-60
2022/01/26 10:04:20;;;;;;;3.57;2.53;;;;;;;;;;4991697;28;20299;-58
2022/01/26 10:06:50;;;;;;;3.13;2.07;;;;;;;;;;4991660;28;20590;-58
2022/01/26 10:09:40;;;;;;;2.80;2.10;;;;;;;;;;4991314;28;20703;-60
2022/01/26 10:17:39;;;;;;;2.43;2.07;;;;;;;;;;4991460;28;20267;-61
2022/01/26 10:20:14;;;;;;;2.20;2.00;;;;;;;;;;4991202;28;20308;-60
2022/01/26 10:22:41;;;;;;;2.30;2.10;;;;;;;;;;4990425;28;20224;-60
2022/01/26 10:25:11;;;;;;;2.10;1.73;;;;;;;;;;4991232;28;20738;-60
2022/01/26 10:27:40;;;;;;;2.10;2.00;;;;;;;;;;4990957;28;20225;-61
2022/01/26 10:30:08;;;;;;;2.17;1.93;;;;;;;;;;4991177;28;20256;-61
2022/01/26 10:32:36;;;;;;;7.13;1.97;;;;;;;;;;4990920;28;20591;-59
2022/01/26 10:35:04;;;;;;;2.47;2.20;;;;;;;;;;4991022;28;20241;-60
2022/01/26 10:37:32;;;;;;;2.10;1.90;;;;;;;;;;4990696;28;20219;-60
2022/01/26 10:40:14;;;;;;;2.47;1.37;;;;;;;;;;4980653;28;20209;-60
2022/01/26 10:42:52;;;;;;;2.17;1.53;;;;;;;;;;4991844;28;20213;-60
2022/01/26 10:45:32;;;;;;;1.37;1.23;;;;;;;;;;4990685;28;20209;-60
2022/01/26 10:48:09;;;;;;;1.30;1.20;;;;;;;;;;4991674;28;20240;-60
2022/01/26 10:53:37;;;;;;;2.53;1.33;;;;;;;;;;4991218;28;20296;-65
2022/01/26 10:56:04;;;;;;;1.70;1.57;;;;;;;;;;4987917;28;20206;-61
2022/01/26 10:58:32;;;;;;;3.30;1.90;;;;;;;;;;4972122;28;20217;-60
2022/01/26 11:00:59;;;;;;;2.67;2.30;;;;;;;;;;4975564;28;20665;-61
2022/01/26 11:03:26;;;;;;;1.73;1.47;;;;;;;;;;4976241;28;20271;-61
2022/01/26 11:05:53;;;;;;;2.50;1.47;;;;;;;;;;4978560;28;20579;-59
2022/01/26 11:08:22;;;;;;;4.60;2.03;;;;;;;;;;4989411;28;20324;-60
2022/01/26 11:10:50;;;;;;;4.27;1.70;;;;;;;;;;4990872;28;20314;-60
2022/01/26 11:13:24;;;;;;;1.70;1.60;;;;;;;;;;4991126;28;20279;-61
2022/01/26 11:15:51;;;;;;;2.83;2.10;;;;;;;;;;4985497;28;20209;-59
2022/01/26 11:18:22;;;;;;;2.03;1.57;;;;;;;;;;4984321;28;20581;-60
2022/01/26 11:20:50;;;;;;;2.40;2.17;;;;;;;;;;4971916;28;20313;-61
2022/01/26 11:23:18;;;;;;;2.67;1.63;;;;;;;;;;4971763;28;20214;-61
2022/01/26 11:25:46;;;;;;;2.17;1.53;;;;;;;;;;4973779;28;20676;-62
2022/01/26 11:28:19;;;;;;;4.23;2.07;;;;;;;;;;4983849;28;20237;-62
2022/01/26 11:30:46;;;;;;;2.03;1.87;;;;;;;;;;4990484;28;20272;-62
2022/01/26 11:33:14;;;;;;;3.87;1.70;;;;;;;;;;4991008;28;20283;-62
2022/01/26 11:35:44;;;;;;;2.00;1.80;;;;;;;;;;4990663;28;20238;-62
2022/01/26 11:38:30;;;;;;;1.80;1.70;;;;;;;;;;4988622;28;20735;-63
2022/01/26 11:46:29;;;;;;;3.60;1.73;;;;;;;;;;4989838;28;20212;-62
2022/01/26 11:49:01;;;;;;;3.23;1.67;;;;;;;;;;4990436;28;20293;-62
2022/01/26 11:51:38;;;;;;;2.50;2.10;;;;;;;;;;4989842;28;20379;-62
2022/01/26 11:54:10;;;;;;;2.93;2.33;;;;;;;;;;4971213;28;20220;-62
2022/01/26 11:56:37;;;;;;;3.70;2.80;;;;;;;;;;4988261;28;20210;-62
2022/01/26 11:59:06;;;;;;;3.87;2.30;;;;;;;;;;4990518;28;20208;-62
2022/01/26 12:01:41;;;;;;;3.13;1.73;;;;;;;;;;4985934;28;20209;-62
2022/01/26 12:04:12;;;;;;;5.70;1.80;;;;;;;;;;4974944;28;20210;-62
2022/01/26 12:06:43;;;;;;;3.40;1.93;;;;;;;;;;4973719;28;20221;-62
2022/01/26 12:09:11;;;;;;;2.17;1.97;;;;;;;;;;4990184;28;21023;-61
2022/01/26 12:11:38;;;;;;;2.80;1.83;;;;;;;;;;4990167;28;20214;-62
2022/01/26 12:14:07;;;;;;;2.30;2.00;;;;;;;;;;4981982;28;20272;-61
2022/01/26 12:16:36;;;;;;;3.97;1.83;;;;;;;;;;4989795;28;20209;-63
2022/01/26 12:19:23;;;;;;;3.97;2.10;;;;;;;;;;4989657;28;20353;-63
2022/01/26 12:35:53;;;;;;;4.23;2.07;;;;;;;;;;4978686;28;20346;-62
2022/01/26 12:38:25;;;;;;;3.43;2.30;;;;;;;;;;4989950;28;20202;-62
2022/01/26 12:41:19;;;;;;;1.53;1.43;;;;;;;;;;4990005;28;20219;-63
2022/01/26 12:43:47;;;;;;;1.97;1.87;;;;;;;;;;4989795;28;20216;-62
2022/01/26 12:46:17;;;;;;;3.00;1.90;;;;;;;;;;4989205;28;20213;-64
2022/01/26 12:48:49;;;;;;;2.70;2.17;;;;;;;;;;4989231;28;20287;-62
2022/01/26 12:51:16;;;;;;;5.77;2.53;;;;;;;;;;4988889;28;20720;-61
2022/01/26 12:53:43;;;;;;;1.93;1.80;;;;;;;;;;4988268;28;20201;-60
2022/01/26 12:56:12;;;;;;;4.37;2.27;;;;;;;;;;4988265;28;20217;-60
2022/01/26 12:58:39;;;;;;;2.90;1.97;;;;;;;;;;4989629;28;20201;-64
2022/01/26 13:01:07;;;;;;;2.20;2.10;;;;;;;;;;4989791;28;20594;-61
2022/01/26 13:03:37;;;;;;;2.37;2.13;;;;;;;;;;4989804;28;20206;-63
2022/01/26 13:06:12;;;;;;;2.50;1.87;;;;;;;;;;4986071;28;20214;-60
2022/01/26 13:08:47;;;;;;;7.33;2.40;;;;;;;;;;4981680;28;20231;-60
2022/01/26 13:11:14;;;;;;;2.23;2.07;;;;;;;;;;4982772;28;20220;-60
2022/01/26 13:13:41;;;;;;;2.37;2.17;;;;;;;;;;4984448;28;20653;-60
2022/01/26 13:16:16;;;;;;;4.33;2.60;;;;;;;;;;4977553;28;20606;-60
2022/01/26 13:19:14;;;;;;;1.93;1.83;;;;;;;;;;4971009;28;20228;-60
2022/01/26 13:22:04;;;;;;;2.07;1.83;;;;;;;;;;4984336;28;20220;-61
2022/01/26 13:24:50;;;;;;;3.27;2.13;;;;;;;;;;4984021;28;20731;-60
2022/01/26 13:27:27;;;;;;;4.77;2.30;;;;;;;;;;4984949;28;20214;-61
2022/01/26 13:30:06;;;;;;;3.07;1.90;;;;;;;;;;4972292;28;20244;-61
2022/01/26 13:32:57;;;;;;;5.83;2.77;;;;;;;;;;4984758;28;20264;-61
2022/01/26 13:38:33;;;;;;;4.13;2.87;;;;;;;;;;4955408;28;21011;-60
2022/01/26 13:41:08;;;;;;;8.50;2.93;;;;;;;;;;4969970;28;20221;-60
2022/01/26 13:46:58;;;;;;;5.40;3.07;;;;;;;;;;4971970;28;20312;-61
2022/01/26 13:49:37;;;;;;;7.27;3.30;;;;;;;;;;4978090;28;20230;-60
2022/01/26 13:52:21;;;;;;;8.37;3.10;;;;;;;;;;4976894;28;20220;-61
2022/01/26 13:55:25;;;;;;;6.87;2.60;;;;;;;;;;4983866;28;20592;-61
2022/01/26 14:00:55;;;;;;;8.03;3.90;;;;;;;;;;4952054;28;20349;-61
2022/01/26 14:03:25;;;;;;;7.80;3.27;;;;;;;;;;4973406;28;20217;-61
2022/01/26 14:05:52;;;;;;;7.30;3.37;;;;;;;;;;4980468;28;20381;-62
2022/01/26 14:08:20;;;;;;;4.80;2.97;;;;;;;;;;4987342;28;20217;-61
2022/01/26 14:10:48;;;;;;;7.57;3.17;;;;;;;;;;4976002;28;20782;-61
2022/01/26 14:13:20;;;;;;;7.33;3.60;;;;;;;;;;4988007;28;20214;-60
2022/01/26 14:15:49;;;;;;;9.27;3.37;;;;;;;;;;4983521;28;20300;-61
2022/01/26 14:21:30;;;;;;;8.90;3.50;;;;;;;;;;4907861;29;20666;-60
2022/01/26 14:26:42;;;;;;;5.80;3.00;;;;;;;;;;4935293;28;20803;-61
2022/01/26 14:29:18;;;;;;;5.47;3.77;;;;;;;;;;4982656;28;20233;-61
2022/01/26 14:32:07;;;;;;;6.23;3.83;;;;;;;;;;4981404;28;20692;-62
2022/01/26 14:52:37;;;;;;;5.90;3.50;;;;;;;;;;4968462;28;20727;-61
2022/01/26 14:55:15;;;;;;;5.80;3.17;;;;;;;;;;4977169;28;20217;-61
2022/01/26 15:08:46;;;;;;;9.23;5.37;;;;;;;;;;4974586;28;20692;-60
2022/01/26 15:34:18;;;;;;;5.73;3.20;;;;;;;;;;4959553;28;20301;-60
2022/01/26 15:48:42;;;;;;;5.50;3.60;;;;;;;;;;4967879;28;20203;-60
2022/01/26 15:50:44;;;;;;;5.27;2.97;;;;;;;;;;4980975;28;20244;-60
2022/01/26 15:53:19;;;;;;;10.37;3.93;;;;;;;;;;4975118;28;20210;-60
2022/01/26 15:58:44;;;;;;;6.33;3.50;;;;;;;;;;4975737;28;20208;-61
2022/01/26 16:06:59;;;;;;;5.47;4.20;;;;;;;;;;4976087;28;20223;-62
2022/01/26 16:20:47;;;;;;;6.83;3.43;;;;;;;;;;4978343;28;20703;-60
2022/01/26 16:26:32;;;;;;;13.17;4.00;;;;;;;;;;4976464;28;20272;-61
2022/01/26 17:03:09;;;;;;;7.40;4.00;;;;;;;;;;4982351;28;20707;-61
2022/01/26 17:11:25;;;;;;;7.97;3.77;;;;;;;;;;4983988;28;20315;-61
2022/01/26 17:26:01;;;;;;;7.93;4.13;;;;;;;;;;4954899;28;20457;-60
2022/01/26 18:04:34;;;;;;;9.50;4.97;;;;;;;;;;4979592;28;20220;-61
2022/01/26 18:07:22;;;;;;;7.87;4.03;;;;;;;;;;4986096;28;20220;-61
2022/01/26 18:15:36;;;;;;;9.83;4.30;;;;;;;;;;4986613;28;20291;-61
2022/01/26 18:26:32;;;;;;;9.03;4.20;;;;;;;;;;4973712;28;20205;-61
2022/01/26 18:32:02;;;;;;;7.23;3.70;;;;;;;;;;4986975;28;20358;-63
2022/01/26 18:51:22;;;;;;;6.63;4.00;;;;;;;;;;4944882;28;20705;-60
2022/01/26 18:53:49;;;;;;;8.03;4.50;;;;;;;;;;4967284;28;20221;-60
2022/01/26 18:56:16;;;;;;;10.90;4.53;;;;;;;;;;4985692;28;20212;-60
2022/01/26 18:58:43;;;;;;;9.10;4.23;;;;;;;;;;4978963;28;20218;-60
2022/01/26 19:01:10;;;;;;;6.97;4.03;;;;;;;;;;4984519;28;20212;-59
2022/01/26 19:03:37;;;;;;;8.50;4.57;;;;;;;;;;4986819;28;20579;-59
2022/01/26 19:06:05;;;;;;;5.63;3.97;;;;;;;;;;4982623;28;20224;-59
2022/01/26 19:08:33;;;;;;;8.53;4.57;;;;;;;;;;4987018;28;20628;-60
2022/01/26 19:11:00;;;;;;;8.30;4.87;;;;;;;;;;4986656;28;20833;-61
2022/01/26 19:13:30;;;;;;;10.00;4.60;;;;;;;;;;4975415;28;20649;-61
2022/01/26 19:16:03;;;;;;;9.70;4.70;;;;;;;;;;4976478;28;20939;-60
2022/01/26 19:18:45;;;;;;;11.33;5.67;;;;;;;;;;4986570;28;20220;-61
2022/01/26 19:21:19;;;;;;;9.50;4.47;;;;;;;;;;4983176;28;20599;-60
2022/01/26 19:24:17;;;;;;;13.13;4.37;;;;;;;;;;4986263;28;20977;-60
2022/01/26 19:26:49;;;;;;;7.37;4.10;;;;;;;;;;4986276;28;20217;-60
2022/01/26 19:29:27;;;;;;;11.10;4.63;;;;;;;;;;4967287;28;20829;-60
2022/01/26 19:46:02;;;;;;;6.53;3.67;;;;;;;;;;4984563;28;20970;-60
2022/01/26 19:51:15;;;;;;;8.30;4.73;;;;;;;;;;4985893;28;20307;-60
2022/01/26 19:53:42;;;;;;;6.77;3.37;;;;;;;;;;4982476;28;20210;-60
2022/01/26 19:56:10;;;;;;;5.97;3.60;;;;;;;;;;4985017;28;20604;-59
2022/01/26 19:58:37;;;;;;;12.20;4.20;;;;;;;;;;4985586;28;20220;-59
2022/01/26 20:01:05;;;;;;;10.33;5.30;;;;;;;;;;4985259;28;20212;-60
2022/01/26 20:03:34;;;;;;;9.67;3.87;;;;;;;;;;4985302;28;20221;-60
2022/01/26 20:06:03;;;;;;;6.07;4.33;;;;;;;;;;4985492;28;20213;-60
2022/01/26 20:08:36;;;;;;;11.53;4.33;;;;;;;;;;4985280;28;20209;-60
2022/01/26 20:11:07;;;;;;;5.37;3.90;;;;;;;;;;4985375;28;20244;-60
2022/01/26 20:13:40;;;;;;;7.57;4.43;;;;;;;;;;4985116;28;20209;-60
2022/01/26 20:16:07;;;;;;;12.70;5.90;;;;;;;;;;4985499;28;20218;-59
2022/01/26 20:18:35;;;;;;;8.87;4.67;;;;;;;;;;4985410;28;20209;-60
2022/01/26 20:21:02;;;;;;;7.90;4.43;;;;;;;;;;4985906;28;20217;-60
2022/01/26 20:23:33;;;;;;;9.10;4.57;;;;;;;;;;4985059;28;20235;-60
2022/01/26 20:26:00;;;;;;;9.50;4.77;;;;;;;;;;4985391;28;20275;-58
2022/01/26 20:28:28;;;;;;;6.33;3.57;;;;;;;;;;4975381;28;20225;-58
2022/01/26 20:30:59;;;;;;;7.43;3.80;;;;;;;;;;4985021;28;20252;-58
2022/01/26 20:33:26;;;;;;;6.43;4.13;;;;;;;;;;4985331;28;20248;-58